createdAt,value
2018-12-30T00:04:24.424Z,7.50
2018-12-30T00:09:47.022Z,3.43
2018-12-30T00:14:50.002Z,2.23
2018-12-30T00:20:12.617Z,1.23
2018-12-30T00:25:15.306Z,4.10
2018-12-30T00:30:18.002Z,3.70
2018-12-30T00:35:40.328Z,8.00
2018-12-30T00:41:02.527Z,2.30
2018-12-30T00:46:05.267Z,5.03
2018-12-30T00:51:27.476Z,4.23
2018-12-30T00:56:30.142Z,1.57
2018-12-30T01:01:52.326Z,2.63
2018-12-30T01:07:14.615Z,4.40
2018-12-30T01:12:36.795Z,3.33
2018-12-30T01:17:59.003Z,7.50
2018-12-30T01:23:01.886Z,9.47
2018-12-30T01:28:04.608Z,11.83
2018-12-30T01:33:07.350Z,22.43
2018-12-30T01:38:29.557Z,3.30
2018-12-30T01:43:51.772Z,16.43
2018-12-30T01:49:07.513Z,8.33
2018-12-30T01:54:29.717Z,10.00
2018-12-30T01:59:51.911Z,6.50
2018-12-30T02:05:14.088Z,9.83
2018-12-30T02:10:36.270Z,21.13
2018-12-30T02:15:58.471Z,12.80
2018-12-30T02:21:01.244Z,3.53
2018-12-30T02:26:23.414Z,8.53
2018-12-30T02:31:45.639Z,18.03
2018-12-30T02:37:07.811Z,11.73
2018-12-30T02:42:30.113Z,17.33
2018-12-30T02:47:44.987Z,17.37
2018-12-30T02:53:07.250Z,16.67
2018-12-30T02:58:29.487Z,7.93
2018-12-30T03:03:51.744Z,12.20
2018-12-30T03:09:20.826Z,12.63
2018-12-30T03:14:43.056Z,12.80
2018-12-30T03:19:45.756Z,7.40
2018-12-30T03:25:07.946Z,13.07
2018-12-30T03:30:30.141Z,10.93
2018-12-30T03:35:52.332Z,25.17
2018-12-30T03:41:14.526Z,23.23
2018-12-30T03:46:17.248Z,14.33
2018-12-30T03:51:19.125Z,15.45
2018-12-30T03:56:21.829Z,18.90
2018-12-30T04:11:47.935Z,13.00
2018-12-30T04:17:10.255Z,11.80
2018-12-30T04:22:16.976Z,10.90
2018-12-30T04:27:37.220Z,7.27
2018-12-30T04:32:59.414Z,17.63
2018-12-30T04:38:02.108Z,19.60
2018-12-30T04:43:05.175Z,33.20
2018-12-30T04:48:07.889Z,21.37
2018-12-30T04:53:30.079Z,17.90
2018-12-30T04:58:52.268Z,6.03
2018-12-30T05:04:14.583Z,12.33
2018-12-30T05:09:36.758Z,15.17
2018-12-30T05:14:58.956Z,10.80
2018-12-30T05:20:21.145Z,13.43
2018-12-30T05:25:43.342Z,13.90
2018-12-30T05:31:05.521Z,10.73
2018-12-30T05:36:27.711Z,20.57
2018-12-30T05:41:30.410Z,17.07
2018-12-30T05:46:45.491Z,15.73
2018-12-30T05:52:07.717Z,11.50
2018-12-30T05:57:32.692Z,20.07
2018-12-30T06:02:54.952Z,25.53
2018-12-30T06:08:17.164Z,15.53
2018-12-30T06:13:19.888Z,6.57
2018-12-30T06:18:42.212Z,12.53
2018-12-30T06:24:04.422Z,11.23
2018-12-30T06:29:26.602Z,15.77
2018-12-30T06:34:29.383Z,5.73
2018-12-30T06:39:51.562Z,13.03
2018-12-30T06:45:13.772Z,16.20
2018-12-30T06:50:28.772Z,12.07
2018-12-30T06:55:50.959Z,11.93
2018-12-30T07:01:13.244Z,7.63
2018-12-30T07:06:35.437Z,6.37
2018-12-30T07:11:57.686Z,14.20
2018-12-30T07:17:19.880Z,8.30
2018-12-30T07:22:42.069Z,18.80
2018-12-30T07:28:04.254Z,9.50
2018-12-30T07:33:26.441Z,16.77
2018-12-30T07:38:29.180Z,6.37
2018-12-30T07:43:31.844Z,9.60
2018-12-30T07:48:47.324Z,11.70
2018-12-30T07:53:50.020Z,9.90
2018-12-30T07:59:12.324Z,15.90
2018-12-30T08:04:34.512Z,10.27
2018-12-30T08:09:56.701Z,10.73
2018-12-30T08:15:18.899Z,5.10
2018-12-30T08:20:41.077Z,5.47
2018-12-30T08:25:43.772Z,8.87
2018-12-30T08:31:05.967Z,12.23
2018-12-30T08:36:28.143Z,12.43
2018-12-30T08:41:30.868Z,10.70
2018-12-30T08:46:45.804Z,5.33
2018-12-30T08:52:07.979Z,6.80
2018-12-30T08:57:30.180Z,4.97
2018-12-30T09:02:52.368Z,8.57
2018-12-30T09:08:14.647Z,17.47
2018-12-30T09:13:36.921Z,15.33
2018-12-30T09:18:59.096Z,5.20
2018-12-30T09:24:21.276Z,27.63
2018-12-30T09:29:43.467Z,8.30
2018-12-30T09:34:46.165Z,21.07
2018-12-30T09:39:48.853Z,11.63
2018-12-30T09:45:11.032Z,8.10
2018-12-30T09:50:26.668Z,4.73
2018-12-30T09:55:29.361Z,11.13
2018-12-30T10:00:32.042Z,10.43
2018-12-30T10:05:54.238Z,9.97
2018-12-30T10:11:16.427Z,4.13
2018-12-30T10:16:40.969Z,7.33
2018-12-30T10:22:03.151Z,7.70
2018-12-30T10:27:06.044Z,19.60
2018-12-30T10:32:08.745Z,11.83
2018-12-30T10:42:28.264Z,11.63
2018-12-30T10:47:43.338Z,15.73
2018-12-30T10:53:05.569Z,10.33
2018-12-30T10:58:27.751Z,23.67
2018-12-30T11:03:30.459Z,12.30
2018-12-30T11:08:33.169Z,6.83
2018-12-30T11:13:55.349Z,7.60
2018-12-30T11:18:58.054Z,8.33
2018-12-30T11:24:20.259Z,7.27
2018-12-30T11:29:42.523Z,9.07
2018-12-30T11:35:04.811Z,4.00
2018-12-30T11:40:27.015Z,10.33
2018-12-30T11:45:29.716Z,2.80
2018-12-30T11:50:44.929Z,8.00
2018-12-30T11:56:07.124Z,2.90
2018-12-30T12:01:29.315Z,4.00
2018-12-30T12:06:32.089Z,5.87
2018-12-30T12:11:34.802Z,9.87
2018-12-30T12:16:37.498Z,4.80
2018-12-30T12:21:59.685Z,8.30
2018-12-30T12:27:21.869Z,6.67
2018-12-30T12:32:44.152Z,9.53
2018-12-30T12:38:06.346Z,13.80
2018-12-30T12:43:28.533Z,11.57
2018-12-30T12:48:43.516Z,9.30
2018-12-30T12:54:05.715Z,13.57
2018-12-30T12:59:08.425Z,10.57
2018-12-30T13:04:30.616Z,5.10
2018-12-30T13:09:52.814Z,7.33
2018-12-30T13:15:14.988Z,9.57
2018-12-30T13:20:37.163Z,6.90
2018-12-30T13:25:59.360Z,9.03
2018-12-30T13:31:21.548Z,15.87
2018-12-30T13:36:24.928Z,8.97
2018-12-30T13:41:27.858Z,7.60
2018-12-30T13:46:30.576Z,13.27
2018-12-30T13:51:53.332Z,11.30
2018-12-30T13:57:15.729Z,8.33
2018-12-30T14:02:38.057Z,14.27
2018-12-30T14:08:00.311Z,12.30
2018-12-30T14:13:42.896Z,12.03
2018-12-30T14:19:05.152Z,6.30
2018-12-30T14:24:27.469Z,2.60
2018-12-30T14:29:30.168Z,9.30
2018-12-30T14:34:32.960Z,5.20
2018-12-30T14:39:35.692Z,9.20
2018-12-30T14:44:57.868Z,5.07
2018-12-30T14:50:00.584Z,5.03
2018-12-30T14:55:22.795Z,6.23
2018-12-30T15:00:44.975Z,5.97
2018-12-30T15:06:07.149Z,5.90
2018-12-30T15:11:29.351Z,7.67
2018-12-30T15:16:51.534Z,7.40
2018-12-30T15:21:54.256Z,7.80
2018-12-30T15:27:16.457Z,4.20
2018-12-30T15:32:19.138Z,6.43
2018-12-30T15:37:41.319Z,2.90
2018-12-30T15:43:03.514Z,9.07
2018-12-30T15:48:06.225Z,4.03
2018-12-30T15:53:28.414Z,9.33
2018-12-30T15:58:50.604Z,21.80
2018-12-30T16:04:15.045Z,17.97
2018-12-30T16:09:18.937Z,16.87
2018-12-30T16:14:41.186Z,22.80
2018-12-30T16:20:04.407Z,4.37
2018-12-30T16:25:07.093Z,5.23
2018-12-30T16:30:29.288Z,4.07
2018-12-30T16:35:32.013Z,8.83
2018-12-30T16:40:34.694Z,13.60
2018-12-30T16:45:49.921Z,7.50
2018-12-30T16:51:12.141Z,5.90
2018-12-30T16:56:34.352Z,7.97
2018-12-30T17:01:56.567Z,5.50
2018-12-30T17:07:18.760Z,18.30
2018-12-30T17:12:40.949Z,15.57
2018-12-30T17:18:03.166Z,8.33
2018-12-30T17:23:25.342Z,9.60
2018-12-30T17:28:47.876Z,5.70
2018-12-30T17:34:10.052Z,11.00
2018-12-30T17:39:32.244Z,8.97
2018-12-30T17:44:54.458Z,17.10
2018-12-30T17:50:10.404Z,5.67
2018-12-30T17:55:32.589Z,6.67
2018-12-30T18:00:35.287Z,7.60
2018-12-30T18:05:57.465Z,10.90
2018-12-30T18:11:19.644Z,7.53
2018-12-30T18:16:41.812Z,8.53
2018-12-30T18:21:44.508Z,7.20
2018-12-30T18:27:06.715Z,15.43
2018-12-30T18:32:28.898Z,14.80
2018-12-30T18:37:51.076Z,6.60
2018-12-30T18:43:13.281Z,3.80
2018-12-30T18:48:16.050Z,12.70
2018-12-30T18:53:38.233Z,6.60
2018-12-30T18:58:40.938Z,7.13
2018-12-30T19:03:43.629Z,3.43
2018-12-30T19:09:05.844Z,6.97
2018-12-30T19:14:08.601Z,10.27
2018-12-30T19:19:30.826Z,8.57
2018-12-30T19:24:53.016Z,10.83
2018-12-30T19:30:15.200Z,8.43
2018-12-30T19:35:37.388Z,4.77
2018-12-30T19:40:59.639Z,10.37
2018-12-30T19:46:15.072Z,7.40
2018-12-30T19:51:38.570Z,21.37
2018-12-30T19:56:41.940Z,12.43
2018-12-30T20:02:04.257Z,7.70
2018-12-30T20:07:26.449Z,13.97
2018-12-30T20:12:48.632Z,6.10
2018-12-30T20:18:10.806Z,6.63
2018-12-30T20:23:32.968Z,10.87
2018-12-30T20:28:55.156Z,7.23
2018-12-30T20:33:57.825Z,10.40
2018-12-30T20:39:19.997Z,12.40
2018-12-30T20:44:42.167Z,8.57
2018-12-30T20:49:44.941Z,15.43
2018-12-30T20:55:07.113Z,11.07
2018-12-30T21:00:29.283Z,20.50
2018-12-30T21:05:51.468Z,10.43
2018-12-30T21:11:13.656Z,14.47
2018-12-30T21:16:35.839Z,13.73
2018-12-30T21:21:58.037Z,13.90
2018-12-30T21:27:00.728Z,18.47
2018-12-30T21:32:22.891Z,14.97
2018-12-30T21:37:45.079Z,15.93
2018-12-30T21:43:07.249Z,14.77
2018-12-30T21:48:22.976Z,21.20
2018-12-30T21:53:45.151Z,15.33
2018-12-30T21:59:07.344Z,14.17
2018-12-30T22:04:10.018Z,14.27
2018-12-30T22:09:12.721Z,16.10
2018-12-30T22:14:34.926Z,15.83
2018-12-30T22:19:57.108Z,21.03
2018-12-30T22:25:19.277Z,19.70
2018-12-30T22:30:41.451Z,24.17
2018-12-30T22:35:44.137Z,22.30
2018-12-30T22:41:06.332Z,22.83
2018-12-30T22:46:21.428Z,29.90
2018-12-30T22:51:43.605Z,25.43
2018-12-30T22:56:46.298Z,21.03
2018-12-30T23:07:05.420Z,20.23
2018-12-30T23:12:08.204Z,24.10
2018-12-30T23:17:10.893Z,22.80
2018-12-30T23:22:33.095Z,27.90
2018-12-30T23:27:35.843Z,27.37
2018-12-30T23:32:58.029Z,29.57
2018-12-30T23:38:20.348Z,33.07
2018-12-30T23:43:42.515Z,32.90
2018-12-30T23:48:57.701Z,28.23
2018-12-30T23:54:19.888Z,33.03
2018-12-30T23:59:42.080Z,32.93
